createdAt,value
2022-11-16T00:00:53.069Z,69.69
2022-11-16T00:01:53.097Z,74.88
2022-11-16T00:02:53.040Z,72.79
2022-11-16T00:03:53.039Z,69.81
2022-11-16T00:04:53.001Z,75.04
2022-11-16T00:05:52.989Z,71.43
2022-11-16T00:06:52.990Z,72.84
2022-11-16T00:07:52.953Z,73.95
2022-11-16T00:08:52.956Z,74.17
2022-11-16T00:09:52.913Z,70.37
2022-11-16T00:10:52.898Z,72.53
2022-11-16T00:11:52.878Z,75.49
2022-11-16T00:12:52.852Z,69.50
2022-11-16T00:13:52.864Z,70.50
2022-11-16T00:14:52.819Z,69.06
2022-11-16T00:15:52.804Z,72.32
2022-11-16T00:16:52.790Z,71.87
2022-11-16T00:17:52.769Z,73.11
2022-11-16T00:18:52.779Z,72.24
2022-11-16T00:19:52.743Z,74.41
2022-11-16T00:20:52.724Z,74.56
2022-11-16T00:21:52.699Z,73.82
2022-11-16T00:22:52.679Z,74.54
2022-11-16T00:23:52.695Z,75.36
2022-11-16T00:24:52.648Z,75.70
2022-11-16T00:25:52.632Z,73.31
2022-11-16T00:26:52.611Z,74.16
2022-11-16T00:27:52.593Z,73.78
2022-11-16T00:28:52.605Z,72.70
2022-11-16T00:29:52.558Z,69.21
2022-11-16T00:30:52.547Z,76.22
2022-11-16T00:31:52.539Z,74.59
2022-11-16T00:32:52.509Z,73.76
2022-11-16T00:33:52.535Z,72.80
2022-11-16T00:34:52.492Z,72.57
2022-11-16T00:35:52.469Z,76.01
2022-11-16T00:36:52.458Z,74.66
2022-11-16T00:37:52.422Z,74.03
2022-11-16T00:38:52.429Z,73.11
2022-11-16T00:39:52.392Z,73.44
2022-11-16T00:40:52.372Z,74.61
2022-11-16T00:41:52.362Z,75.85
2022-11-16T00:42:52.339Z,74.68
2022-11-16T00:43:52.341Z,74.75
2022-11-16T00:44:52.335Z,72.04
2022-11-16T00:45:53.290Z,76.20
2022-11-16T00:46:52.280Z,73.69
2022-11-16T00:47:56.439Z,74.82
2022-11-16T00:48:53.314Z,74.16
2022-11-16T00:49:52.210Z,71.65
2022-11-16T00:50:52.190Z,71.14
2022-11-16T00:51:52.176Z,75.03
2022-11-16T00:52:52.165Z,67.58
2022-11-16T00:53:52.194Z,73.88
2022-11-16T00:54:52.133Z,72.95
2022-11-16T00:55:52.120Z,72.71
2022-11-16T00:56:52.123Z,72.39
2022-11-16T00:57:52.083Z,73.12
2022-11-16T00:58:52.088Z,73.06
2022-11-16T00:59:52.037Z,73.35
2022-11-16T01:00:52.060Z,71.31
2022-11-16T01:01:52.040Z,72.71
2022-11-16T01:02:51.985Z,71.46
2022-11-16T01:03:52.033Z,74.60
2022-11-16T01:04:51.973Z,72.84
2022-11-16T01:05:51.957Z,75.84
2022-11-16T01:06:52.581Z,74.06
2022-11-16T01:07:51.898Z,75.32
2022-11-16T01:08:51.880Z,69.81
2022-11-16T01:09:51.895Z,75.95
2022-11-16T01:10:51.850Z,72.50
2022-11-16T01:11:51.833Z,75.31
2022-11-16T01:12:51.828Z,72.06
2022-11-16T01:13:51.800Z,73.32
2022-11-16T01:14:51.799Z,74.77
2022-11-16T01:15:51.759Z,73.07
2022-11-16T01:17:31.645Z,75.91
2022-11-16T01:17:51.728Z,74.51
2022-11-16T01:18:51.712Z,72.91
2022-11-16T01:19:51.734Z,72.81
2022-11-16T01:20:51.681Z,70.73
2022-11-16T01:21:51.660Z,74.16
2022-11-16T01:22:51.647Z,76.52
2022-11-16T01:23:51.624Z,76.85
2022-11-16T01:24:51.635Z,75.24
2022-11-16T01:25:51.599Z,73.61
2022-11-16T01:26:51.577Z,71.20
2022-11-16T01:27:51.559Z,75.16
2022-11-16T01:28:51.549Z,75.18
2022-11-16T01:29:51.550Z,74.68
2022-11-16T01:30:51.513Z,74.46
2022-11-16T01:31:51.491Z,74.47
2022-11-16T01:32:51.474Z,74.66
2022-11-16T01:33:51.460Z,75.02
2022-11-16T01:34:51.464Z,73.42
2022-11-16T01:35:51.428Z,69.49
2022-11-16T01:36:51.403Z,75.18
2022-11-16T01:37:51.387Z,72.69
2022-11-16T01:38:51.370Z,75.24
2022-11-16T01:39:51.380Z,70.17
2022-11-16T01:40:51.339Z,71.64
2022-11-16T01:41:51.321Z,73.02
2022-11-16T01:42:51.301Z,73.82
2022-11-16T01:43:51.282Z,75.58
2022-11-16T01:44:51.293Z,71.93
2022-11-16T01:45:51.249Z,74.29
2022-11-16T01:46:51.232Z,74.00
2022-11-16T01:47:51.269Z,75.50
2022-11-16T01:48:51.215Z,71.98
2022-11-16T01:49:51.214Z,74.00
2022-11-16T01:50:51.161Z,71.41
2022-11-16T01:51:51.145Z,71.08
2022-11-16T01:52:51.135Z,74.03
2022-11-16T01:53:51.117Z,74.49
2022-11-16T01:54:51.121Z,74.64
2022-11-16T01:55:51.073Z,74.70
2022-11-16T01:56:51.061Z,75.50
2022-11-16T01:57:51.037Z,76.88
2022-11-16T01:58:51.024Z,74.35
2022-11-16T01:59:51.041Z,76.29
2022-11-16T02:00:51.017Z,75.65
2022-11-16T02:01:50.985Z,71.89
2022-11-16T02:02:50.951Z,74.44
2022-11-16T02:03:50.948Z,72.16
2022-11-16T02:04:50.947Z,73.88
2022-11-16T02:05:50.921Z,70.21
2022-11-16T02:06:50.902Z,74.65
2022-11-16T02:07:50.873Z,73.41
2022-11-16T02:08:50.857Z,75.45
2022-11-16T02:09:50.864Z,73.23
2022-11-16T02:10:50.828Z,74.16
2022-11-16T02:11:50.813Z,72.45
2022-11-16T02:12:50.786Z,71.84
2022-11-16T02:13:51.578Z,75.76
2022-11-16T02:14:51.786Z,74.63
2022-11-16T02:15:50.742Z,75.76
2022-11-16T02:16:50.722Z,76.78
2022-11-16T02:17:50.700Z,73.86
2022-11-16T02:18:50.683Z,73.66
2022-11-16T02:19:50.702Z,73.99
2022-11-16T02:20:50.647Z,71.26
2022-11-16T02:21:50.635Z,75.09
2022-11-16T02:22:50.617Z,73.83
2022-11-16T02:23:50.603Z,75.12
2022-11-16T02:24:50.610Z,74.53
2022-11-16T02:25:50.562Z,73.04
2022-11-16T02:26:50.554Z,75.19
2022-11-16T02:27:50.530Z,74.85
2022-11-16T02:28:50.511Z,74.62
2022-11-16T02:29:50.517Z,75.18
2022-11-16T02:30:50.479Z,73.06
2022-11-16T02:31:50.454Z,75.72
2022-11-16T02:32:50.439Z,71.82
2022-11-16T02:33:50.420Z,73.41
2022-11-16T02:34:50.427Z,76.33
2022-11-16T02:35:50.390Z,75.85
2022-11-16T02:36:50.367Z,75.92
2022-11-16T02:37:50.352Z,73.21
2022-11-16T02:38:50.331Z,76.25
2022-11-16T02:39:50.339Z,75.15
2022-11-16T02:40:50.291Z,76.60
2022-11-16T02:41:50.280Z,72.33
2022-11-16T02:42:50.255Z,74.12
2022-11-16T02:43:50.243Z,76.01
2022-11-16T02:44:50.248Z,75.13
2022-11-16T02:45:50.204Z,76.07
2022-11-16T02:46:50.213Z,77.12
2022-11-16T02:47:50.177Z,77.29
2022-11-16T02:48:50.156Z,74.24
2022-11-16T02:49:50.168Z,74.89
2022-11-16T02:50:50.127Z,73.91
2022-11-16T02:51:50.105Z,75.75
2022-11-16T02:52:50.085Z,74.94
2022-11-16T02:53:50.063Z,71.64
2022-11-16T02:54:50.076Z,69.63
2022-11-16T02:55:50.074Z,74.17
2022-11-16T02:56:50.008Z,77.01
2022-11-16T02:57:49.989Z,76.20
2022-11-16T02:58:49.998Z,74.36
2022-11-16T02:59:49.996Z,75.46
2022-11-16T03:00:50.632Z,76.45
2022-11-16T03:01:50.940Z,75.98
2022-11-16T03:02:49.909Z,74.44
2022-11-16T03:03:49.912Z,74.11
2022-11-16T03:04:49.910Z,74.16
2022-11-16T03:05:49.851Z,72.70
2022-11-16T03:06:49.866Z,74.68
2022-11-16T03:07:49.837Z,77.56
2022-11-16T03:08:49.801Z,77.35
2022-11-16T03:09:49.805Z,74.24
2022-11-16T03:10:49.776Z,75.76
2022-11-16T03:11:49.750Z,74.85
2022-11-16T03:12:49.725Z,75.49
2022-11-16T03:13:49.707Z,74.56
2022-11-16T03:14:49.734Z,73.90
2022-11-16T03:15:49.670Z,75.45
2022-11-16T03:16:49.650Z,75.14
2022-11-16T03:17:49.633Z,78.08
2022-11-16T03:18:49.617Z,77.56
2022-11-16T03:19:49.630Z,76.25
2022-11-16T03:20:49.582Z,75.19
2022-11-16T03:21:49.562Z,74.98
2022-11-16T03:22:49.548Z,77.53
2022-11-16T03:23:49.524Z,76.53
2022-11-16T03:24:49.533Z,75.62
2022-11-16T03:25:49.509Z,73.50
2022-11-16T03:26:49.473Z,77.28
2022-11-16T03:27:49.462Z,74.53
2022-11-16T03:28:49.437Z,74.19
2022-11-16T03:29:49.448Z,76.54
2022-11-16T03:30:49.406Z,76.97
2022-11-16T03:32:30.250Z,75.08
2022-11-16T03:32:49.374Z,77.75
2022-11-16T03:33:49.357Z,76.67
2022-11-16T03:34:49.361Z,76.26
2022-11-16T03:35:49.325Z,80.05
2022-11-16T03:36:49.319Z,74.59
2022-11-16T03:37:49.287Z,74.62
2022-11-16T03:38:49.262Z,75.70
2022-11-16T03:39:49.274Z,74.98
2022-11-16T03:40:49.231Z,76.16
2022-11-16T03:41:49.236Z,75.12
2022-11-16T03:42:49.198Z,75.92
2022-11-16T03:43:49.177Z,74.95
2022-11-16T03:44:49.189Z,75.25
2022-11-16T03:45:49.141Z,74.02
2022-11-16T03:46:49.178Z,78.07
2022-11-16T03:47:49.139Z,75.24
2022-11-16T03:48:49.092Z,78.59
2022-11-16T03:49:49.112Z,75.42
2022-11-16T03:50:49.055Z,76.12
2022-11-16T03:51:49.039Z,76.89
2022-11-16T03:52:49.027Z,77.42
2022-11-16T03:53:49.005Z,77.27
2022-11-16T03:54:48.987Z,73.62
2022-11-16T03:55:50.091Z,77.06
2022-11-16T03:56:49.952Z,77.57
2022-11-16T03:57:48.933Z,74.89
2022-11-16T03:58:48.922Z,76.58
2022-11-16T03:59:48.934Z,77.42
2022-11-16T04:00:48.924Z,76.67
2022-11-16T04:01:48.867Z,75.18
2022-11-16T04:02:48.875Z,75.73
2022-11-16T04:03:48.857Z,78.98
2022-11-16T04:04:48.863Z,76.33
2022-11-16T04:05:48.833Z,73.15
2022-11-16T04:06:48.842Z,77.55
2022-11-16T04:07:48.762Z,75.84
2022-11-16T04:08:49.748Z,75.01
2022-11-16T04:09:48.736Z,76.28
2022-11-16T04:10:48.744Z,77.38
2022-11-16T04:11:48.691Z,76.68
2022-11-16T04:12:48.678Z,74.74
2022-11-16T04:13:48.694Z,75.34
2022-11-16T04:14:48.644Z,77.57
2022-11-16T04:15:48.650Z,77.22
2022-11-16T04:16:48.607Z,76.02
2022-11-16T04:17:48.611Z,79.11
2022-11-16T04:18:48.573Z,77.76
2022-11-16T04:19:48.551Z,77.60
2022-11-16T04:20:48.564Z,76.79
2022-11-16T04:21:48.522Z,77.38
2022-11-16T04:22:48.517Z,79.30
2022-11-16T04:23:48.487Z,77.98
2022-11-16T04:24:48.481Z,77.96
2022-11-16T04:25:49.482Z,78.37
2022-11-16T04:26:48.445Z,79.03
2022-11-16T04:27:48.421Z,76.56
2022-11-16T04:28:48.403Z,77.41
2022-11-16T04:29:48.387Z,78.44
2022-11-16T04:30:48.388Z,77.63
2022-11-16T04:31:48.371Z,78.49
2022-11-16T04:32:48.334Z,78.20
2022-11-16T04:33:48.312Z,75.73
2022-11-16T04:34:48.296Z,78.87
2022-11-16T04:35:48.330Z,78.48
2022-11-16T04:36:48.267Z,76.45
2022-11-16T04:37:48.255Z,79.12
2022-11-16T04:38:48.223Z,77.14
2022-11-16T04:39:48.204Z,77.66
2022-11-16T04:40:48.219Z,78.51
2022-11-16T04:41:48.177Z,78.72
2022-11-16T04:42:48.157Z,78.40
2022-11-16T04:43:48.139Z,76.47
2022-11-16T04:44:48.123Z,76.96
2022-11-16T04:45:48.148Z,78.71
2022-11-16T04:46:48.083Z,76.03
2022-11-16T04:47:48.073Z,79.20
2022-11-16T04:48:48.050Z,78.60
2022-11-16T04:49:48.033Z,79.01
2022-11-16T04:50:48.045Z,77.97
2022-11-16T04:51:47.997Z,77.50
2022-11-16T04:52:47.996Z,78.35
2022-11-16T04:53:47.964Z,78.52
2022-11-16T04:54:47.949Z,78.91
2022-11-16T04:55:47.963Z,78.20
2022-11-16T04:56:47.907Z,78.02
2022-11-16T04:57:47.887Z,78.51
2022-11-16T04:58:48.873Z,77.92
2022-11-16T04:59:47.855Z,79.53
2022-11-16T05:00:47.866Z,74.60
2022-11-16T05:01:47.867Z,77.24
2022-11-16T05:02:47.801Z,78.25
2022-11-16T05:03:47.783Z,78.26
2022-11-16T05:04:47.769Z,79.69
2022-11-16T05:05:47.768Z,77.91
2022-11-16T05:06:47.807Z,76.72
2022-11-16T05:07:47.714Z,79.00
2022-11-16T05:08:47.698Z,76.21
2022-11-16T05:09:47.677Z,78.03
2022-11-16T05:10:47.691Z,78.69
2022-11-16T05:11:47.640Z,78.30
2022-11-16T05:12:47.638Z,76.11
2022-11-16T05:13:47.603Z,78.88
2022-11-16T05:14:47.602Z,77.66
2022-11-16T05:15:47.597Z,78.24
2022-11-16T05:16:47.550Z,79.68
2022-11-16T05:17:47.537Z,78.05
2022-11-16T05:18:47.526Z,74.87
2022-11-16T05:19:47.506Z,77.79
2022-11-16T05:20:47.508Z,79.93
2022-11-16T05:21:47.469Z,78.23
2022-11-16T05:22:47.445Z,77.07
2022-11-16T05:23:47.443Z,80.81
2022-11-16T05:24:47.413Z,77.72
2022-11-16T05:25:47.417Z,78.28
2022-11-16T05:26:47.370Z,77.79
2022-11-16T05:27:47.363Z,78.51
2022-11-16T05:28:47.341Z,78.61
2022-11-16T05:29:47.345Z,78.29
2022-11-16T05:30:47.329Z,78.72
2022-11-16T05:31:47.296Z,79.08
2022-11-16T05:32:47.270Z,79.51
2022-11-16T05:33:47.253Z,78.92
2022-11-16T05:34:47.248Z,77.95
2022-11-16T05:35:47.241Z,76.42
2022-11-16T05:36:47.237Z,78.86
2022-11-16T05:37:47.178Z,76.99
2022-11-16T05:38:47.168Z,78.38
2022-11-16T05:39:47.181Z,78.32
2022-11-16T05:40:47.179Z,78.97
2022-11-16T05:41:47.230Z,75.24
2022-11-16T05:42:47.100Z,78.01
2022-11-16T05:43:47.102Z,78.55
2022-11-16T05:44:47.060Z,79.99
2022-11-16T05:45:47.044Z,77.56
2022-11-16T05:46:47.057Z,79.53
2022-11-16T05:47:47.002Z,79.54
2022-11-16T05:48:47.013Z,79.53
2022-11-16T05:50:27.852Z,78.46
2022-11-16T05:50:46.983Z,79.60
2022-11-16T05:51:46.948Z,79.98
2022-11-16T05:52:46.924Z,79.40
2022-11-16T05:53:46.907Z,78.55
2022-11-16T05:54:46.887Z,78.76
2022-11-16T05:55:46.953Z,77.97
2022-11-16T05:56:46.852Z,78.99
2022-11-16T05:57:46.833Z,79.14
2022-11-16T05:58:46.844Z,80.38
2022-11-16T05:59:46.803Z,80.53
2022-11-16T06:00:46.814Z,77.90
2022-11-16T06:01:46.761Z,78.44
2022-11-16T06:02:46.779Z,79.78
2022-11-16T06:03:46.726Z,80.56
2022-11-16T06:04:46.712Z,79.69
2022-11-16T06:05:46.718Z,78.73
2022-11-16T06:06:46.675Z,79.17
2022-11-16T06:07:46.654Z,78.16
2022-11-16T06:08:46.636Z,78.20
2022-11-16T06:09:46.665Z,78.68
2022-11-16T06:10:46.644Z,78.87
2022-11-16T06:11:46.583Z,77.92
2022-11-16T06:12:46.584Z,79.23
2022-11-16T06:13:46.553Z,77.58
2022-11-16T06:14:46.535Z,79.45
2022-11-16T06:15:52.230Z,77.93
2022-11-16T06:16:48.679Z,76.67
2022-11-16T06:17:46.479Z,77.25
2022-11-16T06:18:46.461Z,78.43
2022-11-16T06:19:46.448Z,78.08
2022-11-16T06:20:46.451Z,79.64
2022-11-16T06:21:46.405Z,77.56
2022-11-16T06:22:46.391Z,77.99
2022-11-16T06:23:46.376Z,79.65
2022-11-16T06:24:46.355Z,78.05
2022-11-16T06:25:46.372Z,79.29
2022-11-16T06:26:46.328Z,78.90
2022-11-16T06:27:46.303Z,80.35
2022-11-16T06:28:46.302Z,77.91
2022-11-16T06:29:46.288Z,78.43
2022-11-16T06:30:46.242Z,78.97
2022-11-16T06:31:46.258Z,77.26
2022-11-16T06:32:46.856Z,78.05
2022-11-16T06:33:46.207Z,79.63
2022-11-16T06:34:46.215Z,77.11
2022-11-16T06:35:46.186Z,80.09
2022-11-16T06:36:46.195Z,79.57
2022-11-16T06:37:46.137Z,77.70
2022-11-16T06:38:46.103Z,78.68
2022-11-16T06:39:46.121Z,79.83
2022-11-16T06:40:46.065Z,79.59
2022-11-16T06:41:46.081Z,78.96
2022-11-16T06:42:46.038Z,79.96
2022-11-16T06:43:46.022Z,78.73
2022-11-16T06:44:46.002Z,77.56
2022-11-16T06:45:45.984Z,79.48
2022-11-16T06:46:45.979Z,77.99
2022-11-16T06:47:47.079Z,77.20
2022-11-16T06:48:45.933Z,78.95
2022-11-16T06:49:45.913Z,78.44
2022-11-16T06:50:45.900Z,77.68
2022-11-16T06:51:45.908Z,78.50
2022-11-16T06:52:45.859Z,78.70
2022-11-16T06:53:45.860Z,78.69
2022-11-16T06:54:45.823Z,79.38
2022-11-16T06:55:45.814Z,77.44
2022-11-16T06:56:45.859Z,77.20
2022-11-16T06:57:46.019Z,78.10
2022-11-16T06:58:45.755Z,77.47
2022-11-16T06:59:45.762Z,78.22
2022-11-16T07:00:45.758Z,78.69
2022-11-16T07:01:45.757Z,77.88
2022-11-16T07:02:45.678Z,78.26
2022-11-16T07:03:45.661Z,77.97
2022-11-16T07:04:45.685Z,78.28
2022-11-16T07:05:46.644Z,79.04
2022-11-16T07:06:45.642Z,77.44
2022-11-16T07:07:45.594Z,77.02
2022-11-16T07:08:45.583Z,79.20
2022-11-16T07:09:45.564Z,76.84
2022-11-16T07:10:45.535Z,77.34
2022-11-16T07:11:46.559Z,76.99
2022-11-16T07:12:45.504Z,79.65
2022-11-16T07:13:45.512Z,78.11
2022-11-16T07:14:45.486Z,77.27
2022-11-16T07:15:45.462Z,79.14
2022-11-16T07:16:45.656Z,78.90
2022-11-16T07:17:45.416Z,76.92
2022-11-16T07:18:45.403Z,78.21
2022-11-16T07:19:45.375Z,78.80
2022-11-16T07:20:46.370Z,76.49
2022-11-16T07:21:45.373Z,76.53
2022-11-16T07:22:45.346Z,77.76
2022-11-16T07:23:45.322Z,76.77
2022-11-16T07:24:45.302Z,77.92
2022-11-16T07:25:45.296Z,79.10
2022-11-16T07:26:45.292Z,77.31
2022-11-16T07:27:45.246Z,76.64
2022-11-16T07:28:48.479Z,78.16
2022-11-16T07:29:46.209Z,78.07
2022-11-16T07:30:45.193Z,77.72
2022-11-16T07:31:45.200Z,76.76
2022-11-16T07:32:45.175Z,78.66
2022-11-16T07:33:45.164Z,76.48
2022-11-16T07:34:45.130Z,76.29
2022-11-16T07:35:45.120Z,78.51
2022-11-16T07:36:45.192Z,77.17
2022-11-16T07:37:45.075Z,78.57
2022-11-16T07:38:45.063Z,77.94
2022-11-16T07:39:45.040Z,77.88
2022-11-16T07:40:45.020Z,76.77
2022-11-16T07:41:45.802Z,76.09
2022-11-16T07:42:51.814Z,77.11
2022-11-16T07:43:49.904Z,77.56
2022-11-16T07:44:45.951Z,76.91
2022-11-16T07:45:44.932Z,77.27
2022-11-16T07:46:47.109Z,74.74
2022-11-16T07:47:45.907Z,77.76
2022-11-16T07:48:44.874Z,77.47
2022-11-16T07:49:44.858Z,77.21
2022-11-16T07:50:44.855Z,77.86
2022-11-16T07:51:44.842Z,78.03
2022-11-16T07:52:45.053Z,75.81
2022-11-16T07:53:44.826Z,77.82
2022-11-16T07:54:44.773Z,78.32
2022-11-16T07:55:45.744Z,76.04
2022-11-16T07:56:44.777Z,76.73
2022-11-16T07:57:47.942Z,76.20
2022-11-16T07:58:45.706Z,78.65
2022-11-16T07:59:44.679Z,79.14
2022-11-16T08:00:44.679Z,77.46
2022-11-16T08:01:44.730Z,76.32
2022-11-16T08:02:44.626Z,78.63
2022-11-16T08:03:44.619Z,78.25
2022-11-16T08:04:44.590Z,77.93
2022-11-16T08:05:44.571Z,77.16
2022-11-16T08:06:44.583Z,78.24
2022-11-16T08:07:44.538Z,76.47
2022-11-16T08:08:45.099Z,76.45
2022-11-16T08:09:44.552Z,78.41
2022-11-16T08:10:44.485Z,75.92
2022-11-16T08:11:44.491Z,78.71
2022-11-16T08:12:44.450Z,77.99
2022-11-16T08:13:44.447Z,77.46
2022-11-16T08:14:45.025Z,76.44
2022-11-16T08:15:44.398Z,78.11
2022-11-16T08:16:44.407Z,76.73
2022-11-16T08:17:44.360Z,75.79
2022-11-16T08:18:44.346Z,76.87
2022-11-16T08:19:44.330Z,76.96
2022-11-16T08:20:44.310Z,77.91
2022-11-16T08:21:44.318Z,77.01
2022-11-16T08:22:44.279Z,77.34
2022-11-16T08:23:44.256Z,77.85
2022-11-16T08:24:44.244Z,77.84
2022-11-16T08:25:44.227Z,78.29
2022-11-16T08:26:44.229Z,77.44
2022-11-16T08:27:44.191Z,78.04
2022-11-16T08:28:44.172Z,78.44
2022-11-16T08:29:44.147Z,79.27
2022-11-16T08:30:46.362Z,78.57
2022-11-16T08:31:44.142Z,75.96
2022-11-16T08:32:44.094Z,79.43
2022-11-16T08:33:44.640Z,78.20
2022-11-16T08:34:44.097Z,76.69
2022-11-16T08:35:44.042Z,79.09
2022-11-16T08:36:44.046Z,78.06
2022-11-16T08:37:44.008Z,77.34
2022-11-16T08:38:43.984Z,78.04
2022-11-16T08:39:43.976Z,78.61
2022-11-16T08:40:43.952Z,78.50
2022-11-16T08:41:43.964Z,79.01
2022-11-16T08:42:44.182Z,78.01
2022-11-16T08:43:44.570Z,76.90
2022-11-16T08:44:43.887Z,78.14
2022-11-16T08:45:43.864Z,76.86
2022-11-16T08:46:43.857Z,77.70
2022-11-16T08:47:44.825Z,76.36
2022-11-16T08:48:43.802Z,75.48
2022-11-16T08:49:49.258Z,79.39
2022-11-16T08:51:10.524Z,77.56
2022-11-16T08:51:45.786Z,78.51
2022-11-16T08:52:43.735Z,77.34
2022-11-16T08:53:43.716Z,77.56
2022-11-16T08:54:43.700Z,77.84
2022-11-16T08:55:43.677Z,76.61
2022-11-16T08:56:43.771Z,79.31
2022-11-16T08:57:43.649Z,76.76
2022-11-16T08:58:43.643Z,76.24
2022-11-16T08:59:43.605Z,77.66
2022-11-16T09:00:43.585Z,76.39
2022-11-16T09:01:43.647Z,77.20
2022-11-16T09:02:43.546Z,76.12
2022-11-16T09:03:43.537Z,77.88
2022-11-16T09:04:43.507Z,78.79
2022-11-16T09:05:43.490Z,78.69
2022-11-16T09:06:43.493Z,78.41
2022-11-16T09:07:43.452Z,79.48
2022-11-16T09:08:43.428Z,78.13
2022-11-16T09:09:43.414Z,79.16
2022-11-16T09:10:43.396Z,77.59
2022-11-16T09:11:43.401Z,76.86
2022-11-16T09:12:43.357Z,77.18
2022-11-16T09:13:43.332Z,77.68
2022-11-16T09:14:43.318Z,76.62
2022-11-16T09:15:43.309Z,75.55
2022-11-16T09:16:43.302Z,77.24
2022-11-16T09:17:43.261Z,77.47
2022-11-16T09:18:43.239Z,76.82
2022-11-16T09:19:43.227Z,77.72
2022-11-16T09:20:43.208Z,75.95
2022-11-16T09:21:43.211Z,76.84
2022-11-16T09:22:43.166Z,76.70
2022-11-16T09:23:43.147Z,76.13
2022-11-16T09:24:43.121Z,75.96
2022-11-16T09:25:43.106Z,76.15
2022-11-16T09:26:43.111Z,76.50
2022-11-16T09:27:43.060Z,75.35
2022-11-16T09:28:43.053Z,76.41
2022-11-16T09:29:43.027Z,74.56
2022-11-16T09:30:43.021Z,76.77
2022-11-16T09:31:43.013Z,76.90
2022-11-16T09:32:42.983Z,76.16
2022-11-16T09:33:42.963Z,74.79
2022-11-16T09:34:42.930Z,76.49
2022-11-16T09:35:42.907Z,75.72
2022-11-16T09:36:43.001Z,75.60
2022-11-16T09:37:42.885Z,75.08
2022-11-16T09:39:10.447Z,75.97
2022-11-16T09:39:44.898Z,76.84
2022-11-16T09:40:43.795Z,76.75
2022-11-16T09:41:42.798Z,78.24
2022-11-16T09:42:42.801Z,75.15
2022-11-16T09:43:46.049Z,76.22
2022-11-16T09:44:43.821Z,76.10
2022-11-16T09:45:42.722Z,74.17
2022-11-16T09:46:42.704Z,76.77
2022-11-16T09:47:42.706Z,75.42
2022-11-16T09:48:42.664Z,76.18
2022-11-16T09:49:42.643Z,76.53
2022-11-16T09:50:42.616Z,76.71
2022-11-16T09:51:42.601Z,76.93
2022-11-16T09:52:42.603Z,77.19
2022-11-16T09:53:42.561Z,75.34
2022-11-16T09:54:42.548Z,77.18
2022-11-16T09:55:42.524Z,76.41
2022-11-16T09:56:42.503Z,78.00
2022-11-16T09:57:43.512Z,77.25
2022-11-16T09:58:42.466Z,76.00
2022-11-16T09:59:42.450Z,77.20
2022-11-16T10:00:42.562Z,76.99
2022-11-16T10:01:42.412Z,75.83
2022-11-16T10:02:42.416Z,77.53
2022-11-16T10:03:42.377Z,77.75
2022-11-16T10:04:42.358Z,76.34
2022-11-16T10:05:42.341Z,76.53
2022-11-16T10:06:42.352Z,76.96
2022-11-16T10:07:42.324Z,75.87
2022-11-16T10:08:42.278Z,78.34
2022-11-16T10:09:42.262Z,77.85
2022-11-16T10:10:42.269Z,75.57
2022-11-16T10:11:42.226Z,78.65
2022-11-16T10:12:42.233Z,76.91
2022-11-16T10:13:42.188Z,76.68
2022-11-16T10:14:42.175Z,76.22
2022-11-16T10:15:42.158Z,78.10
2022-11-16T10:16:42.212Z,77.77
2022-11-16T10:17:42.143Z,77.56
2022-11-16T10:18:42.093Z,76.19
2022-11-16T10:19:42.079Z,76.53
2022-11-16T10:20:42.060Z,77.05
2022-11-16T10:21:42.036Z,77.32
2022-11-16T10:22:42.043Z,76.48
2022-11-16T10:23:42.008Z,76.50
2022-11-16T10:24:41.993Z,76.63
2022-11-16T10:25:41.972Z,78.16
2022-11-16T10:26:41.945Z,76.39
2022-11-16T10:27:41.948Z,75.30
2022-11-16T10:28:41.907Z,75.81
2022-11-16T10:29:41.892Z,75.02
2022-11-16T10:30:41.884Z,76.22
2022-11-16T10:31:41.852Z,76.42
2022-11-16T10:32:41.856Z,75.51
2022-11-16T10:33:41.808Z,76.24
2022-11-16T10:34:41.796Z,76.92
2022-11-16T10:35:41.769Z,76.18
2022-11-16T10:36:41.757Z,76.46
2022-11-16T10:37:41.760Z,75.84
2022-11-16T10:38:41.713Z,76.11
2022-11-16T10:39:41.694Z,76.37
2022-11-16T10:40:41.678Z,75.91
2022-11-16T10:41:41.651Z,75.88
2022-11-16T10:42:41.657Z,77.44
2022-11-16T10:43:41.614Z,77.09
2022-11-16T10:44:41.591Z,77.17
2022-11-16T10:45:41.573Z,75.84
2022-11-16T10:46:41.551Z,76.62
2022-11-16T10:47:41.566Z,76.49
2022-11-16T10:48:41.588Z,77.30
2022-11-16T10:49:41.500Z,76.25
2022-11-16T10:50:41.477Z,75.37
2022-11-16T10:51:41.457Z,76.51
2022-11-16T10:52:41.468Z,77.51
2022-11-16T10:53:41.409Z,75.83
2022-11-16T10:54:44.278Z,76.04
2022-11-16T10:55:42.369Z,76.52
2022-11-16T10:56:41.352Z,76.39
2022-11-16T10:57:41.362Z,77.01
2022-11-16T10:58:41.316Z,75.03
2022-11-16T10:59:41.294Z,76.15
2022-11-16T11:00:41.361Z,77.32
2022-11-16T11:01:41.250Z,76.71
2022-11-16T11:02:41.257Z,74.29
2022-11-16T11:03:41.214Z,75.61
2022-11-16T11:04:41.276Z,76.54
2022-11-16T11:05:41.172Z,74.91
2022-11-16T11:06:41.154Z,75.49
2022-11-16T11:07:41.191Z,76.86
2022-11-16T11:08:41.112Z,76.47
2022-11-16T11:09:41.094Z,75.01
2022-11-16T11:10:41.073Z,75.89
2022-11-16T11:11:41.051Z,75.62
2022-11-16T11:12:41.059Z,75.83
2022-11-16T11:13:41.012Z,74.41
2022-11-16T11:14:40.997Z,72.46
2022-11-16T11:15:40.969Z,75.27
2022-11-16T11:16:40.953Z,74.82
2022-11-16T11:17:40.955Z,77.29
2022-11-16T11:18:40.907Z,77.34
2022-11-16T11:19:40.893Z,76.81
2022-11-16T11:20:44.850Z,74.82
2022-11-16T11:21:41.859Z,76.04
2022-11-16T11:22:40.854Z,75.31
2022-11-16T11:23:40.808Z,76.56
2022-11-16T11:24:45.355Z,78.14
2022-11-16T11:25:41.768Z,76.04
2022-11-16T11:26:40.749Z,76.73
2022-11-16T11:27:40.765Z,76.66
2022-11-16T11:28:40.705Z,76.42
2022-11-16T11:29:40.693Z,76.26
2022-11-16T11:30:40.670Z,75.79
2022-11-16T11:31:40.641Z,75.54
2022-11-16T11:32:40.649Z,74.62
2022-11-16T11:33:40.607Z,76.48
2022-11-16T11:34:40.588Z,76.33
2022-11-16T11:35:40.572Z,75.24
2022-11-16T11:36:40.620Z,76.00
2022-11-16T11:37:40.543Z,76.37
2022-11-16T11:38:40.500Z,76.11
2022-11-16T11:39:40.564Z,76.15
2022-11-16T11:40:40.459Z,76.53
2022-11-16T11:41:40.439Z,75.61
2022-11-16T11:42:40.449Z,74.25
2022-11-16T11:43:40.389Z,73.94
2022-11-16T11:44:40.375Z,74.14
2022-11-16T11:45:40.348Z,75.89
2022-11-16T11:47:28.710Z,76.13
2022-11-16T11:47:57.461Z,75.22
2022-11-16T11:48:42.327Z,76.00
2022-11-16T11:49:40.268Z,76.30
2022-11-16T11:50:40.248Z,75.78
2022-11-16T11:51:40.277Z,76.00
2022-11-16T11:52:40.207Z,76.02
2022-11-16T11:53:40.217Z,75.60
2022-11-16T11:54:45.528Z,74.54
2022-11-16T11:55:42.147Z,75.22
2022-11-16T11:56:40.139Z,76.29
2022-11-16T11:57:40.130Z,74.55
2022-11-16T11:58:40.097Z,73.44
2022-11-16T11:59:40.060Z,76.04
2022-11-16T12:00:40.178Z,76.03
2022-11-16T12:01:40.206Z,75.04
2022-11-16T12:02:40.108Z,75.76
2022-11-16T12:03:39.978Z,73.81
2022-11-16T12:04:39.977Z,75.38
2022-11-16T12:05:39.940Z,75.90
2022-11-16T12:06:43.751Z,75.91
2022-11-16T12:07:40.944Z,73.40
2022-11-16T12:08:39.872Z,75.45
2022-11-16T12:09:39.855Z,76.97
2022-11-16T12:11:20.714Z,74.81
2022-11-16T12:11:39.815Z,76.26
2022-11-16T12:12:39.878Z,76.20
2022-11-16T12:13:39.812Z,75.98
2022-11-16T12:14:39.755Z,76.50
2022-11-16T12:16:20.623Z,75.95
2022-11-16T12:16:39.729Z,75.58
2022-11-16T12:18:23.607Z,76.12
2022-11-16T12:18:39.700Z,74.43
2022-11-16T12:19:40.672Z,76.29
2022-11-16T12:20:39.664Z,75.26
2022-11-16T12:21:39.635Z,74.42
2022-11-16T12:22:39.631Z,76.22
2022-11-16T12:23:40.605Z,76.53
2022-11-16T12:24:39.635Z,74.79
2022-11-16T12:25:39.540Z,76.47
2022-11-16T12:26:39.520Z,75.91
2022-11-16T12:27:39.540Z,74.68
2022-11-16T12:28:39.482Z,74.29
2022-11-16T12:29:39.473Z,76.20
2022-11-16T12:30:39.434Z,75.96
2022-11-16T12:31:39.420Z,74.72
2022-11-16T12:32:39.428Z,73.08
2022-11-16T12:33:39.405Z,74.90
2022-11-16T12:34:39.365Z,75.48
2022-11-16T12:35:39.350Z,72.96
2022-11-16T12:36:39.311Z,75.18
2022-11-16T12:37:39.351Z,74.98
2022-11-16T12:39:20.385Z,75.14
2022-11-16T12:39:39.279Z,78.29
2022-11-16T12:40:39.322Z,77.31
2022-11-16T12:41:39.211Z,76.45
2022-11-16T12:42:40.192Z,75.88
2022-11-16T12:44:29.044Z,75.30
2022-11-16T12:44:39.179Z,76.27
2022-11-16T12:45:39.155Z,76.23
2022-11-16T12:47:25.996Z,76.05
2022-11-16T12:47:39.158Z,76.71
2022-11-16T12:48:39.109Z,76.49
2022-11-16T12:49:39.050Z,77.11
2022-11-16T12:50:39.042Z,75.89
2022-11-16T12:51:39.009Z,74.73
2022-11-16T12:52:39.033Z,74.59